Airfield :
LOGIN :

Register | Disclaimer

   EN    FR    IT 

 










Legend :    VFR   Marginal VFR   IFR   Intensive IFR   Very Intensive IFR
Visi :
Ceiling :
>= 8 km
>= 3000ft
5 to 8 km
1000 to 3000 ft
1500m to 5 km
500 to 1000 ft
800 to 1500m
200 to 500 ft
< 800m
< 200 ft
Symbols :   Thunderstorms  Fog  Heavy snow  Heavy precipitations  Wind > 20 kt
SIGMETs :     Misc.  Thunderstorms  Icing  Turbulence  Mountain Waves  Volcanic Ashes






- Airport Elevation : 375 ft
- IATA code : MST


EHBK - Maastricht Aachen

CURRENT METAR :
  • 181655Z AUTO 23015KT 9999 FEW009 SCT012 BKN014 05/03 Q1021 TEMPO BKN016

EXPIRED METARs :
  • 181625Z AUTO 23014KT 9999 FEW010 BKN012 BKN015 05/03 Q1021 TEMPO BKN016
  • 181555Z AUTO 23013KT 200V260 9999 SCT011 OVC014 05/03 Q1021 TEMPO 7000 -RA
  • 181525Z AUTO 23013KT 9999 BKN015 OVC018 05/03 Q1021 TEMPO BKN014
  • 181455Z AUTO 23014KT 9999 SCT014 BKN016 OVC020 05/03 Q1021 TEMPO BKN014
  • 181425Z AUTO 23012KT 200V270 9999 FEW013 BKN015 OVC018 06/03 Q1021 NOSIG
  • 181355Z AUTO 23012KT 200V270 9999 SCT012 BKN014 OVC017 06/03 Q1021 NOSIG

TAF TAF EHBK
Valid from the 18 at 12:00 until the 19 at 18:00 UTC


181101Z 1812/1918 23013KT 9999 SCT020
PROB30
TEMPO 1814/1822 7000 -RA -SHRA BKN012 FEW015TCU
BECMG 1901/1904 21020G30KT 6000 -RADZ BKN018
PROB40
TEMPO 1906/1915 4000 RADZ BKN012
BECMG 1913/1916 9999 NSW



MET'MAP, your aeronautical weather chart ! - Copyright ORBIFLY December 2007 - Disclaimer

ORBIFLY MET'MAP TEAM :

Programming & Development : Alexandra Zaïnal
Concept & original design : Baudouin d'Aumeries
Assistance for programming : Marc-Olivier Méhu
Technical & hardware support : Manuel Goepfert

Contact : metmap@orbifly.com




SOURCES & CREDITS :

   NOAA